sensor_id;sensor_type;location;lat;lon;timestamp;P1;durP1;ratioP1;P2;durP2;ratioP2
2888;SDS011;1453;42.708;23.282;2024-03-25T00:01:34;1.10;;;0.70;;
2888;SDS011;1453;42.708;23.282;2024-03-25T00:04:00;1.10;;;0.70;;
2888;SDS011;1453;42.708;23.282;2024-03-25T00:06:26;1.10;;;0.70;;
2888;SDS011;1453;42.708;23.282;2024-03-25T00:08:52;1.10;;;0.70;;
2888;SDS011;1453;42.708;23.282;2024-03-25T00:11:18;1.10;;;0.70;;
2888;SDS011;1453;42.708;23.282;2024-03-25T00:13:44;1.10;;;0.70;;
2888;SDS011;1453;42.708;23.282;2024-03-25T00:16:09;1.10;;;0.70;;
2888;SDS011;1453;42.708;23.282;2024-03-25T00:18:35;1.10;;;0.70;;
2888;SDS011;1453;42.708;23.282;2024-03-25T00:21:01;1.10;;;0.70;;
2888;SDS011;1453;42.708;23.282;2024-03-25T00:23:27;1.10;;;0.70;;
2888;SDS011;1453;42.708;23.282;2024-03-25T00:25:53;1.10;;;0.70;;
2888;SDS011;1453;42.708;23.282;2024-03-25T00:28:19;1.10;;;0.70;;
2888;SDS011;1453;42.708;23.282;2024-03-25T00:30:45;1.07;;;0.70;;
2888;SDS011;1453;42.708;23.282;2024-03-25T00:33:11;1.10;;;0.70;;
2888;SDS011;1453;42.708;23.282;2024-03-25T00:35:37;1.10;;;0.70;;
2888;SDS011;1453;42.708;23.282;2024-03-25T00:38:03;1.10;;;0.70;;
2888;SDS011;1453;42.708;23.282;2024-03-25T00:40:29;1.10;;;0.70;;
2888;SDS011;1453;42.708;23.282;2024-03-25T00:42:55;1.10;;;0.70;;
2888;SDS011;1453;42.708;23.282;2024-03-25T00:45:22;1.10;;;0.70;;
2888;SDS011;1453;42.708;23.282;2024-03-25T00:47:50;1.10;;;0.70;;
2888;SDS011;1453;42.708;23.282;2024-03-25T00:50:16;1.10;;;0.70;;
2888;SDS011;1453;42.708;23.282;2024-03-25T00:52:42;1.10;;;0.70;;
2888;SDS011;1453;42.708;23.282;2024-03-25T00:55:08;1.10;;;0.70;;
2888;SDS011;1453;42.708;23.282;2024-03-25T00:57:34;1.10;;;0.70;;
2888;SDS011;1453;42.708;23.282;2024-03-25T01:00:00;1.10;;;0.70;;
2888;SDS011;1453;42.708;23.282;2024-03-25T01:02:26;1.10;;;0.70;;
2888;SDS011;1453;42.708;23.282;2024-03-25T01:04:52;1.10;;;0.70;;
2888;SDS011;1453;42.708;23.282;2024-03-25T01:07:19;1.10;;;0.70;;
2888;SDS011;1453;42.708;23.282;2024-03-25T01:09:45;1.10;;;0.70;;
2888;SDS011;1453;42.708;23.282;2024-03-25T01:12:11;1.10;;;0.70;;
2888;SDS011;1453;42.708;23.282;2024-03-25T01:14:37;1.10;;;0.70;;
2888;SDS011;1453;42.708;23.282;2024-03-25T01:17:03;1.10;;;0.70;;
2888;SDS011;1453;42.708;23.282;2024-03-25T01:19:29;1.10;;;0.70;;
2888;SDS011;1453;42.708;23.282;2024-03-25T01:21:55;1.10;;;0.70;;
2888;SDS011;1453;42.708;23.282;2024-03-25T01:24:21;1.10;;;0.70;;
2888;SDS011;1453;42.708;23.282;2024-03-25T01:26:47;1.10;;;0.70;;
2888;SDS011;1453;42.708;23.282;2024-03-25T01:29:13;1.10;;;0.70;;
2888;SDS011;1453;42.708;23.282;2024-03-25T01:31:39;1.10;;;0.70;;
2888;SDS011;1453;42.708;23.282;2024-03-25T01:34:05;1.10;;;0.70;;
2888;SDS011;1453;42.708;23.282;2024-03-25T01:36:31;1.10;;;0.70;;
2888;SDS011;1453;42.708;23.282;2024-03-25T01:38:57;1.10;;;0.70;;
2888;SDS011;1453;42.708;23.282;2024-03-25T01:41:23;1.10;;;0.70;;
2888;SDS011;1453;42.708;23.282;2024-03-25T01:43:49;1.10;;;0.70;;
2888;SDS011;1453;42.708;23.282;2024-03-25T01:46:15;1.10;;;0.70;;
2888;SDS011;1453;42.708;23.282;2024-03-25T01:48:43;1.10;;;0.70;;
2888;SDS011;1453;42.708;23.282;2024-03-25T01:51:10;1.10;;;0.70;;
2888;SDS011;1453;42.708;23.282;2024-03-25T01:53:38;1.10;;;0.70;;
2888;SDS011;1453;42.708;23.282;2024-03-25T01:56:04;1.10;;;0.70;;
2888;SDS011;1453;42.708;23.282;2024-03-25T01:58:31;1.10;;;0.70;;
2888;SDS011;1453;42.708;23.282;2024-03-25T02:00:57;1.10;;;0.70;;
2888;SDS011;1453;42.708;23.282;2024-03-25T02:03:26;1.10;;;0.70;;
2888;SDS011;1453;42.708;23.282;2024-03-25T02:05:57;1.10;;;0.70;;
2888;SDS011;1453;42.708;23.282;2024-03-25T02:08:28;1.10;;;0.70;;
2888;SDS011;1453;42.708;23.282;2024-03-25T02:10:56;1.10;;;0.70;;
2888;SDS011;1453;42.708;23.282;2024-03-25T02:13:23;1.10;;;0.70;;
2888;SDS011;1453;42.708;23.282;2024-03-25T02:15:50;1.10;;;0.70;;
2888;SDS011;1453;42.708;23.282;2024-03-25T02:18:34;1.10;;;0.70;;
2888;SDS011;1453;42.708;23.282;2024-03-25T02:21:00;1.10;;;0.70;;
2888;SDS011;1453;42.708;23.282;2024-03-25T02:23:26;1.10;;;0.70;;
2888;SDS011;1453;42.708;23.282;2024-03-25T02:25:53;1.10;;;0.70;;
2888;SDS011;1453;42.708;23.282;2024-03-25T02:28:19;1.10;;;0.70;;
2888;SDS011;1453;42.708;23.282;2024-03-25T02:30:45;1.10;;;0.70;;
2888;SDS011;1453;42.708;23.282;2024-03-25T02:33:12;1.10;;;0.70;;
2888;SDS011;1453;42.708;23.282;2024-03-25T02:35:39;1.10;;;0.70;;
2888;SDS011;1453;42.708;23.282;2024-03-25T02:38:07;1.10;;;0.70;;
2888;SDS011;1453;42.708;23.282;2024-03-25T02:40:34;1.10;;;0.70;;
2888;SDS011;1453;42.708;23.282;2024-03-25T02:43:00;1.10;;;0.70;;
2888;SDS011;1453;42.708;23.282;2024-03-25T02:45:27;1.10;;;0.70;;
2888;SDS011;1453;42.708;23.282;2024-03-25T02:47:53;1.10;;;0.70;;
2888;SDS011;1453;42.708;23.282;2024-03-25T02:50:20;1.10;;;0.70;;
2888;SDS011;1453;42.708;23.282;2024-03-25T02:52:46;1.10;;;0.70;;
2888;SDS011;1453;42.708;23.282;2024-03-25T02:55:12;1.10;;;0.70;;
2888;SDS011;1453;42.708;23.282;2024-03-25T02:57:38;1.10;;;0.70;;
2888;SDS011;1453;42.708;23.282;2024-03-25T03:00:04;1.10;;;0.70;;
2888;SDS011;1453;42.708;23.282;2024-03-25T03:02:30;1.10;;;0.70;;
2888;SDS011;1453;42.708;23.282;2024-03-25T03:04:56;1.10;;;0.70;;
2888;SDS011;1453;42.708;23.282;2024-03-25T03:07:22;1.10;;;0.70;;
2888;SDS011;1453;42.708;23.282;2024-03-25T03:09:48;1.10;;;0.70;;
2888;SDS011;1453;42.708;23.282;2024-03-25T03:12:14;1.10;;;0.70;;
2888;SDS011;1453;42.708;23.282;2024-03-25T03:14:40;1.10;;;0.70;;
2888;SDS011;1453;42.708;23.282;2024-03-25T03:17:06;1.10;;;0.70;;
2888;SDS011;1453;42.708;23.282;2024-03-25T03:19:32;1.10;;;0.70;;
2888;SDS011;1453;42.708;23.282;2024-03-25T03:21:58;1.10;;;0.70;;
2888;SDS011;1453;42.708;23.282;2024-03-25T03:24:24;1.10;;;0.70;;
2888;SDS011;1453;42.708;23.282;2024-03-25T03:26:49;1.10;;;0.70;;
2888;SDS011;1453;42.708;23.282;2024-03-25T03:29:15;1.10;;;0.70;;
2888;SDS011;1453;42.708;23.282;2024-03-25T03:31:41;1.10;;;0.70;;
2888;SDS011;1453;42.708;23.282;2024-03-25T03:34:08;1.10;;;0.70;;
2888;SDS011;1453;42.708;23.282;2024-03-25T03:36:33;1.10;;;0.70;;
2888;SDS011;1453;42.708;23.282;2024-03-25T03:38:59;1.10;;;0.70;;
2888;SDS011;1453;42.708;23.282;2024-03-25T03:41:25;1.10;;;0.70;;
2888;SDS011;1453;42.708;23.282;2024-03-25T03:43:51;1.10;;;0.70;;
2888;SDS011;1453;42.708;23.282;2024-03-25T03:46:17;1.10;;;0.70;;
2888;SDS011;1453;42.708;23.282;2024-03-25T03:48:43;1.10;;;0.70;;
2888;SDS011;1453;42.708;23.282;2024-03-25T03:51:09;1.10;;;0.70;;
2888;SDS011;1453;42.708;23.282;2024-03-25T03:53:35;1.10;;;0.70;;
2888;SDS011;1453;42.708;23.282;2024-03-25T03:56:01;1.10;;;0.70;;
2888;SDS011;1453;42.708;23.282;2024-03-25T03:58:32;1.10;;;0.70;;
2888;SDS011;1453;42.708;23.282;2024-03-25T04:00:59;1.10;;;0.70;;
2888;SDS011;1453;42.708;23.282;2024-03-25T04:03:25;1.10;;;0.70;;
2888;SDS011;1453;42.708;23.282;2024-03-25T04:05:52;1.10;;;0.70;;
2888;SDS011;1453;42.708;23.282;2024-03-25T04:08:18;1.10;;;0.70;;
2888;SDS011;1453;42.708;23.282;2024-03-25T04:10:44;1.10;;;0.70;;
2888;SDS011;1453;42.708;23.282;2024-03-25T04:13:10;1.10;;;0.70;;
2888;SDS011;1453;42.708;23.282;2024-03-25T04:15:38;1.08;;;0.70;;
2888;SDS011;1453;42.708;23.282;2024-03-25T04:18:05;1.10;;;0.70;;
2888;SDS011;1453;42.708;23.282;2024-03-25T04:20:38;1.10;;;0.70;;
2888;SDS011;1453;42.708;23.282;2024-03-25T04:23:06;1.10;;;0.70;;
2888;SDS011;1453;42.708;23.282;2024-03-25T04:25:34;1.10;;;0.70;;
2888;SDS011;1453;42.708;23.282;2024-03-25T04:28:02;1.10;;;0.70;;
2888;SDS011;1453;42.708;23.282;2024-03-25T04:30:30;1.10;;;0.70;;
2888;SDS011;1453;42.708;23.282;2024-03-25T04:32:58;1.10;;;0.70;;
2888;SDS011;1453;42.708;23.282;2024-03-25T04:35:24;1.10;;;0.70;;
2888;SDS011;1453;42.708;23.282;2024-03-25T04:37:50;1.10;;;0.70;;
2888;SDS011;1453;42.708;23.282;2024-03-25T04:40:16;1.10;;;0.70;;
2888;SDS011;1453;42.708;23.282;2024-03-25T04:42:44;1.10;;;0.70;;
2888;SDS011;1453;42.708;23.282;2024-03-25T04:45:10;1.10;;;0.70;;
2888;SDS011;1453;42.708;23.282;2024-03-25T04:47:39;1.10;;;0.70;;
2888;SDS011;1453;42.708;23.282;2024-03-25T04:50:06;1.10;;;0.70;;
2888;SDS011;1453;42.708;23.282;2024-03-25T04:52:33;1.10;;;0.70;;
2888;SDS011;1453;42.708;23.282;2024-03-25T04:54:58;1.20;;;1.07;;
2888;SDS011;1453;42.708;23.282;2024-03-25T04:57:24;1.10;;;0.70;;
2888;SDS011;1453;42.708;23.282;2024-03-25T04:59:50;1.10;;;0.70;;
2888;SDS011;1453;42.708;23.282;2024-03-25T05:02:17;1.10;;;0.70;;
2888;SDS011;1453;42.708;23.282;2024-03-25T05:04:43;1.10;;;0.70;;
2888;SDS011;1453;42.708;23.282;2024-03-25T05:07:09;1.10;;;0.70;;
2888;SDS011;1453;42.708;23.282;2024-03-25T05:09:35;1.10;;;0.70;;
2888;SDS011;1453;42.708;23.282;2024-03-25T05:12:01;1.10;;;0.70;;
2888;SDS011;1453;42.708;23.282;2024-03-25T05:14:27;1.10;;;0.70;;
2888;SDS011;1453;42.708;23.282;2024-03-25T05:16:53;1.10;;;0.70;;
2888;SDS011;1453;42.708;23.282;2024-03-25T05:19:19;1.10;;;0.70;;
2888;SDS011;1453;42.708;23.282;2024-03-25T05:21:45;1.10;;;0.70;;
2888;SDS011;1453;42.708;23.282;2024-03-25T05:24:11;1.10;;;0.70;;
2888;SDS011;1453;42.708;23.282;2024-03-25T05:26:36;2.90;;;1.97;;
2888;SDS011;1453;42.708;23.282;2024-03-25T05:29:02;12.73;;;7.93;;
2888;SDS011;1453;42.708;23.282;2024-03-25T05:31:28;13.70;;;8.10;;
2888;SDS011;1453;42.708;23.282;2024-03-25T05:33:55;13.38;;;9.20;;
2888;SDS011;1453;42.708;23.282;2024-03-25T05:36:21;10.97;;;8.07;;
2888;SDS011;1453;42.708;23.282;2024-03-25T05:38:47;12.60;;;6.20;;
2888;SDS011;1453;42.708;23.282;2024-03-25T05:41:13;10.30;;;7.67;;
2888;SDS011;1453;42.708;23.282;2024-03-25T05:43:39;11.80;;;8.10;;
2888;SDS011;1453;42.708;23.282;2024-03-25T05:46:05;12.33;;;8.03;;
2888;SDS011;1453;42.708;23.282;2024-03-25T05:48:30;14.27;;;8.73;;
2888;SDS011;1453;42.708;23.282;2024-03-25T05:51:06;14.37;;;9.17;;
2888;SDS011;1453;42.708;23.282;2024-03-25T05:53:35;15.20;;;9.10;;
2888;SDS011;1453;42.708;23.282;2024-03-25T05:56:03;15.00;;;9.40;;
2888;SDS011;1453;42.708;23.282;2024-03-25T05:58:29;13.30;;;8.40;;
2888;SDS011;1453;42.708;23.282;2024-03-25T06:00:55;15.43;;;8.33;;
2888;SDS011;1453;42.708;23.282;2024-03-25T06:03:21;11.63;;;6.00;;
2888;SDS011;1453;42.708;23.282;2024-03-25T06:05:47;17.58;;;9.35;;
2888;SDS011;1453;42.708;23.282;2024-03-25T06:08:13;10.05;;;6.30;;
2888;SDS011;1453;42.708;23.282;2024-03-25T06:10:52;10.90;;;8.45;;
2888;SDS011;1453;42.708;23.282;2024-03-25T06:13:21;18.98;;;9.38;;
2888;SDS011;1453;42.708;23.282;2024-03-25T06:15:47;13.38;;;8.45;;
2888;SDS011;1453;42.708;23.282;2024-03-25T06:18:13;11.60;;;7.87;;
2888;SDS011;1453;42.708;23.282;2024-03-25T06:20:39;13.57;;;9.33;;
2888;SDS011;1453;42.708;23.282;2024-03-25T06:23:04;15.00;;;9.00;;
2888;SDS011;1453;42.708;23.282;2024-03-25T06:25:31;13.95;;;9.70;;
2888;SDS011;1453;42.708;23.282;2024-03-25T06:27:58;13.35;;;7.88;;
2888;SDS011;1453;42.708;23.282;2024-03-25T06:30:24;12.60;;;8.30;;
2888;SDS011;1453;42.708;23.282;2024-03-25T06:33:09;13.20;;;8.80;;
2888;SDS011;1453;42.708;23.282;2024-03-25T06:35:53;11.30;;;7.70;;
2888;SDS011;1453;42.708;23.282;2024-03-25T06:38:19;12.53;;;8.73;;
2888;SDS011;1453;42.708;23.282;2024-03-25T06:40:45;12.60;;;8.90;;
2888;SDS011;1453;42.708;23.282;2024-03-25T06:43:11;15.57;;;9.32;;
2888;SDS011;1453;42.708;23.282;2024-03-25T06:45:37;7.72;;;5.50;;
2888;SDS011;1453;42.708;23.282;2024-03-25T06:48:03;10.57;;;8.70;;
2888;SDS011;1453;42.708;23.282;2024-03-25T06:50:30;9.75;;;7.78;;
2888;SDS011;1453;42.708;23.282;2024-03-25T06:52:56;12.50;;;9.00;;
2888;SDS011;1453;42.708;23.282;2024-03-25T06:55:23;10.50;;;8.53;;
2888;SDS011;1453;42.708;23.282;2024-03-25T06:57:52;8.90;;;7.37;;
2888;SDS011;1453;42.708;23.282;2024-03-25T07:00:19;13.03;;;9.47;;
2888;SDS011;1453;42.708;23.282;2024-03-25T07:02:47;11.80;;;9.37;;
2888;SDS011;1453;42.708;23.282;2024-03-25T07:05:13;10.50;;;7.83;;
2888;SDS011;1453;42.708;23.282;2024-03-25T07:07:39;13.93;;;8.80;;
2888;SDS011;1453;42.708;23.282;2024-03-25T07:10:06;9.70;;;8.47;;
2888;SDS011;1453;42.708;23.282;2024-03-25T07:12:32;12.23;;;10.30;;
2888;SDS011;1453;42.708;23.282;2024-03-25T07:14:58;9.17;;;7.90;;
2888;SDS011;1453;42.708;23.282;2024-03-25T07:17:24;10.03;;;8.77;;
2888;SDS011;1453;42.708;23.282;2024-03-25T07:19:51;12.00;;;9.17;;
2888;SDS011;1453;42.708;23.282;2024-03-25T07:22:17;11.17;;;9.50;;
2888;SDS011;1453;42.708;23.282;2024-03-25T07:24:43;13.90;;;9.40;;
2888;SDS011;1453;42.708;23.282;2024-03-25T07:27:09;12.50;;;10.00;;
2888;SDS011;1453;42.708;23.282;2024-03-25T07:29:36;8.67;;;7.77;;
2888;SDS011;1453;42.708;23.282;2024-03-25T07:32:02;8.87;;;7.73;;
2888;SDS011;1453;42.708;23.282;2024-03-25T07:34:29;8.40;;;7.47;;
2888;SDS011;1453;42.708;23.282;2024-03-25T07:36:55;10.40;;;8.00;;
2888;SDS011;1453;42.708;23.282;2024-03-25T07:39:21;9.67;;;8.30;;
2888;SDS011;1453;42.708;23.282;2024-03-25T07:41:49;9.30;;;7.80;;
2888;SDS011;1453;42.708;23.282;2024-03-25T07:44:15;8.80;;;7.90;;
2888;SDS011;1453;42.708;23.282;2024-03-25T07:46:41;10.40;;;8.67;;
2888;SDS011;1453;42.708;23.282;2024-03-25T07:49:07;9.30;;;8.40;;
2888;SDS011;1453;42.708;23.282;2024-03-25T07:51:33;9.63;;;8.23;;
2888;SDS011;1453;42.708;23.282;2024-03-25T07:54:01;10.20;;;9.20;;
2888;SDS011;1453;42.708;23.282;2024-03-25T07:56:28;14.47;;;8.50;;
2888;SDS011;1453;42.708;23.282;2024-03-25T07:58:55;12.53;;;7.90;;
2888;SDS011;1453;42.708;23.282;2024-03-25T08:01:21;9.83;;;8.93;;
2888;SDS011;1453;42.708;23.282;2024-03-25T08:03:47;9.47;;;7.80;;
2888;SDS011;1453;42.708;23.282;2024-03-25T08:06:13;12.00;;;9.10;;
2888;SDS011;1453;42.708;23.282;2024-03-25T08:08:38;8.37;;;7.67;;
2888;SDS011;1453;42.708;23.282;2024-03-25T08:11:04;8.20;;;7.43;;
2888;SDS011;1453;42.708;23.282;2024-03-25T08:13:30;9.53;;;8.63;;
2888;SDS011;1453;42.708;23.282;2024-03-25T08:15:56;12.40;;;7.90;;
2888;SDS011;1453;42.708;23.282;2024-03-25T08:18:22;8.90;;;7.70;;
2888;SDS011;1453;42.708;23.282;2024-03-25T08:20:48;8.73;;;7.30;;
2888;SDS011;1453;42.708;23.282;2024-03-25T08:23:14;11.83;;;8.37;;
2888;SDS011;1453;42.708;23.282;2024-03-25T08:25:39;6.93;;;6.33;;
2888;SDS011;1453;42.708;23.282;2024-03-25T08:28:05;8.77;;;8.00;;
2888;SDS011;1453;42.708;23.282;2024-03-25T08:30:31;11.10;;;8.23;;
2888;SDS011;1453;42.708;23.282;2024-03-25T08:32:57;9.10;;;8.30;;
2888;SDS011;1453;42.708;23.282;2024-03-25T08:35:23;8.57;;;7.67;;
2888;SDS011;1453;42.708;23.282;2024-03-25T08:37:49;8.70;;;7.90;;
2888;SDS011;1453;42.708;23.282;2024-03-25T08:40:15;9.10;;;7.40;;
2888;SDS011;1453;42.708;23.282;2024-03-25T08:42:40;8.60;;;7.80;;
2888;SDS011;1453;42.708;23.282;2024-03-25T08:45:06;9.83;;;8.60;;
2888;SDS011;1453;42.708;23.282;2024-03-25T08:47:33;11.07;;;8.47;;
2888;SDS011;1453;42.708;23.282;2024-03-25T08:49:58;9.90;;;8.97;;
2888;SDS011;1453;42.708;23.282;2024-03-25T08:52:24;8.97;;;8.07;;
2888;SDS011;1453;42.708;23.282;2024-03-25T08:54:50;8.70;;;7.90;;
2888;SDS011;1453;42.708;23.282;2024-03-25T08:57:16;9.03;;;7.83;;
2888;SDS011;1453;42.708;23.282;2024-03-25T08:59:42;8.80;;;7.80;;
2888;SDS011;1453;42.708;23.282;2024-03-25T09:02:08;11.10;;;9.50;;
2888;SDS011;1453;42.708;23.282;2024-03-25T09:04:33;10.30;;;8.50;;
2888;SDS011;1453;42.708;23.282;2024-03-25T09:06:59;9.67;;;7.83;;
2888;SDS011;1453;42.708;23.282;2024-03-25T09:09:25;10.00;;;9.00;;
2888;SDS011;1453;42.708;23.282;2024-03-25T09:12:10;9.40;;;8.47;;
2888;SDS011;1453;42.708;23.282;2024-03-25T09:14:36;8.50;;;7.70;;
2888;SDS011;1453;42.708;23.282;2024-03-25T09:17:03;9.03;;;8.23;;
2888;SDS011;1453;42.708;23.282;2024-03-25T09:19:30;8.40;;;7.60;;
2888;SDS011;1453;42.708;23.282;2024-03-25T09:21:55;9.60;;;7.97;;
2888;SDS011;1453;42.708;23.282;2024-03-25T09:24:21;9.90;;;8.57;;
2888;SDS011;1453;42.708;23.282;2024-03-25T09:26:49;10.55;;;8.43;;
2888;SDS011;1453;42.708;23.282;2024-03-25T09:29:15;10.65;;;7.22;;
2888;SDS011;1453;42.708;23.282;2024-03-25T09:31:41;8.13;;;7.33;;
2888;SDS011;1453;42.708;23.282;2024-03-25T09:34:07;11.10;;;8.83;;
2888;SDS011;1453;42.708;23.282;2024-03-25T09:36:33;9.17;;;8.17;;
2888;SDS011;1453;42.708;23.282;2024-03-25T09:38:59;9.50;;;8.50;;
2888;SDS011;1453;42.708;23.282;2024-03-25T09:41:25;11.03;;;9.30;;
2888;SDS011;1453;42.708;23.282;2024-03-25T09:43:54;9.90;;;8.70;;
2888;SDS011;1453;42.708;23.282;2024-03-25T09:46:22;9.87;;;8.50;;
2888;SDS011;1453;42.708;23.282;2024-03-25T09:48:49;9.13;;;6.93;;
2888;SDS011;1453;42.708;23.282;2024-03-25T09:51:18;8.17;;;7.40;;
2888;SDS011;1453;42.708;23.282;2024-03-25T09:53:45;7.67;;;6.93;;
2888;SDS011;1453;42.708;23.282;2024-03-25T09:56:14;7.90;;;6.30;;
2888;SDS011;1453;42.708;23.282;2024-03-25T09:58:40;10.87;;;7.83;;
2888;SDS011;1453;42.708;23.282;2024-03-25T10:01:09;7.97;;;7.10;;
2888;SDS011;1453;42.708;23.282;2024-03-25T10:03:35;7.50;;;6.70;;
2888;SDS011;1453;42.708;23.282;2024-03-25T10:06:01;7.07;;;5.83;;
2888;SDS011;1453;42.708;23.282;2024-03-25T10:08:27;6.93;;;6.10;;
2888;SDS011;1453;42.708;23.282;2024-03-25T10:10:56;7.67;;;6.17;;
2888;SDS011;1453;42.708;23.282;2024-03-25T10:13:23;7.50;;;6.80;;
2888;SDS011;1453;42.708;23.282;2024-03-25T10:15:49;8.27;;;7.47;;
2888;SDS011;1453;42.708;23.282;2024-03-25T10:18:15;12.83;;;6.73;;
2888;SDS011;1453;42.708;23.282;2024-03-25T10:20:51;7.23;;;6.53;;
2888;SDS011;1453;42.708;23.282;2024-03-25T10:23:25;8.63;;;7.73;;
2888;SDS011;1453;42.708;23.282;2024-03-25T10:25:51;9.30;;;8.23;;
2888;SDS011;1453;42.708;23.282;2024-03-25T10:28:18;9.50;;;7.87;;
2888;SDS011;1453;42.708;23.282;2024-03-25T10:30:44;7.93;;;6.17;;
2888;SDS011;1453;42.708;23.282;2024-03-25T10:33:10;6.47;;;5.90;;
2888;SDS011;1453;42.708;23.282;2024-03-25T10:35:37;5.83;;;5.33;;
2888;SDS011;1453;42.708;23.282;2024-03-25T10:38:05;6.53;;;6.00;;
2888;SDS011;1453;42.708;23.282;2024-03-25T10:40:38;6.30;;;5.80;;
2888;SDS011;1453;42.708;23.282;2024-03-25T10:43:08;6.33;;;5.73;;
2888;SDS011;1453;42.708;23.282;2024-03-25T10:45:46;6.60;;;6.00;;
2888;SDS011;1453;42.708;23.282;2024-03-25T10:48:21;6.20;;;5.70;;
2888;SDS011;1453;42.708;23.282;2024-03-25T10:50:51;6.70;;;6.20;;
2888;SDS011;1453;42.708;23.282;2024-03-25T10:53:20;6.33;;;5.90;;
2888;SDS011;1453;42.708;23.282;2024-03-25T10:55:54;7.00;;;6.20;;
2888;SDS011;1453;42.708;23.282;2024-03-25T10:58:21;7.27;;;6.57;;
2888;SDS011;1453;42.708;23.282;2024-03-25T11:00:49;7.90;;;7.10;;
2888;SDS011;1453;42.708;23.282;2024-03-25T11:03:20;8.30;;;7.10;;
2888;SDS011;1453;42.708;23.282;2024-03-25T11:05:46;7.17;;;6.47;;
2888;SDS011;1453;42.708;23.282;2024-03-25T11:08:13;7.40;;;6.80;;
2888;SDS011;1453;42.708;23.282;2024-03-25T11:10:40;7.77;;;7.07;;
2888;SDS011;1453;42.708;23.282;2024-03-25T11:13:13;8.70;;;6.80;;
2888;SDS011;1453;42.708;23.282;2024-03-25T11:15:43;5.70;;;5.20;;
2888;SDS011;1453;42.708;23.282;2024-03-25T11:18:15;8.33;;;7.20;;
2888;SDS011;1453;42.708;23.282;2024-03-25T11:20:42;8.23;;;6.27;;
2888;SDS011;1453;42.708;23.282;2024-03-25T11:23:09;6.37;;;5.77;;
2888;SDS011;1453;42.708;23.282;2024-03-25T11:25:37;5.73;;;5.33;;
2888;SDS011;1453;42.708;23.282;2024-03-25T11:28:05;6.87;;;6.33;;
2888;SDS011;1453;42.708;23.282;2024-03-25T11:30:32;6.83;;;6.30;;
2888;SDS011;1453;42.708;23.282;2024-03-25T11:33:00;6.17;;;5.60;;
2888;SDS011;1453;42.708;23.282;2024-03-25T11:35:28;6.10;;;5.60;;
2888;SDS011;1453;42.708;23.282;2024-03-25T11:37:54;11.20;;;5.87;;
2888;SDS011;1453;42.708;23.282;2024-03-25T11:40:19;6.77;;;6.10;;
2888;SDS011;1453;42.708;23.282;2024-03-25T11:42:45;6.37;;;5.87;;
2888;SDS011;1453;42.708;23.282;2024-03-25T11:45:16;6.30;;;5.70;;
2888;SDS011;1453;42.708;23.282;2024-03-25T11:47:45;6.90;;;6.20;;
2888;SDS011;1453;42.708;23.282;2024-03-25T11:50:14;12.83;;;7.13;;
2888;SDS011;1453;42.708;23.282;2024-03-25T11:52:42;5.43;;;5.03;;
2888;SDS011;1453;42.708;23.282;2024-03-25T11:55:08;5.70;;;5.30;;
2888;SDS011;1453;42.708;23.282;2024-03-25T11:57:37;6.10;;;5.57;;
2888;SDS011;1453;42.708;23.282;2024-03-25T12:00:04;6.27;;;5.87;;
2888;SDS011;1453;42.708;23.282;2024-03-25T12:02:31;6.30;;;5.77;;
2888;SDS011;1453;42.708;23.282;2024-03-25T12:04:57;6.63;;;6.13;;
2888;SDS011;1453;42.708;23.282;2024-03-25T12:07:24;5.33;;;4.93;;
2888;SDS011;1453;42.708;23.282;2024-03-25T12:09:50;6.83;;;6.30;;
2888;SDS011;1453;42.708;23.282;2024-03-25T12:12:34;6.00;;;5.50;;
2888;SDS011;1453;42.708;23.282;2024-03-25T12:15:00;6.00;;;5.50;;
2888;SDS011;1453;42.708;23.282;2024-03-25T12:17:28;6.27;;;5.70;;
2888;SDS011;1453;42.708;23.282;2024-03-25T12:20:04;6.40;;;5.90;;
2888;SDS011;1453;42.708;23.282;2024-03-25T12:22:39;6.87;;;6.27;;
2888;SDS011;1453;42.708;23.282;2024-03-25T12:25:08;9.13;;;6.07;;
2888;SDS011;1453;42.708;23.282;2024-03-25T12:27:38;7.03;;;6.50;;
2888;SDS011;1453;42.708;23.282;2024-03-25T12:30:06;7.93;;;6.47;;
2888;SDS011;1453;42.708;23.282;2024-03-25T12:32:37;6.73;;;6.23;;
2888;SDS011;1453;42.708;23.282;2024-03-25T12:35:09;7.13;;;6.63;;
2888;SDS011;1453;42.708;23.282;2024-03-25T12:37:40;7.07;;;6.37;;
2888;SDS011;1453;42.708;23.282;2024-03-25T12:40:12;6.13;;;5.73;;
2888;SDS011;1453;42.708;23.282;2024-03-25T12:42:53;6.60;;;6.10;;
2888;SDS011;1453;42.708;23.282;2024-03-25T12:45:20;6.07;;;5.57;;
2888;SDS011;1453;42.708;23.282;2024-03-25T12:47:48;6.67;;;6.13;;
2888;SDS011;1453;42.708;23.282;2024-03-25T12:50:17;8.70;;;8.00;;
2888;SDS011;1453;42.708;23.282;2024-03-25T12:52:44;6.50;;;6.00;;
2888;SDS011;1453;42.708;23.282;2024-03-25T12:55:10;6.60;;;6.00;;
2888;SDS011;1453;42.708;23.282;2024-03-25T12:57:36;6.43;;;5.83;;
2888;SDS011;1453;42.708;23.282;2024-03-25T13:00:02;6.20;;;5.70;;
2888;SDS011;1453;42.708;23.282;2024-03-25T13:02:33;6.13;;;5.63;;
2888;SDS011;1453;42.708;23.282;2024-03-25T13:04:59;6.73;;;6.13;;
2888;SDS011;1453;42.708;23.282;2024-03-25T13:07:25;7.37;;;6.80;;
2888;SDS011;1453;42.708;23.282;2024-03-25T13:09:51;6.10;;;5.70;;
2888;SDS011;1453;42.708;23.282;2024-03-25T13:12:17;5.90;;;5.47;;
2888;SDS011;1453;42.708;23.282;2024-03-25T13:14:43;7.57;;;6.97;;
2888;SDS011;1453;42.708;23.282;2024-03-25T13:17:08;5.70;;;5.20;;
2888;SDS011;1453;42.708;23.282;2024-03-25T13:19:34;6.40;;;5.87;;
2888;SDS011;1453;42.708;23.282;2024-03-25T13:22:00;6.47;;;5.97;;
2888;SDS011;1453;42.708;23.282;2024-03-25T13:24:26;7.17;;;6.57;;
2888;SDS011;1453;42.708;23.282;2024-03-25T13:26:52;6.77;;;6.17;;
2888;SDS011;1453;42.708;23.282;2024-03-25T13:29:18;6.43;;;5.93;;
2888;SDS011;1453;42.708;23.282;2024-03-25T13:31:44;5.77;;;5.37;;
2888;SDS011;1453;42.708;23.282;2024-03-25T13:34:10;6.20;;;5.70;;
2888;SDS011;1453;42.708;23.282;2024-03-25T13:36:36;5.90;;;5.40;;
2888;SDS011;1453;42.708;23.282;2024-03-25T13:39:02;6.13;;;5.63;;
2888;SDS011;1453;42.708;23.282;2024-03-25T13:41:28;5.70;;;5.30;;
2888;SDS011;1453;42.708;23.282;2024-03-25T13:43:54;5.63;;;5.23;;
2888;SDS011;1453;42.708;23.282;2024-03-25T13:46:20;4.83;;;4.50;;
2888;SDS011;1453;42.708;23.282;2024-03-25T13:48:47;6.23;;;5.70;;
2888;SDS011;1453;42.708;23.282;2024-03-25T13:51:13;7.20;;;6.00;;
2888;SDS011;1453;42.708;23.282;2024-03-25T13:53:39;6.23;;;5.60;;
2888;SDS011;1453;42.708;23.282;2024-03-25T13:56:05;4.47;;;4.20;;
2888;SDS011;1453;42.708;23.282;2024-03-25T13:58:31;4.07;;;3.77;;
2888;SDS011;1453;42.708;23.282;2024-03-25T14:00:57;4.37;;;4.07;;
2888;SDS011;1453;42.708;23.282;2024-03-25T14:03:24;4.30;;;4.00;;
2888;SDS011;1453;42.708;23.282;2024-03-25T14:05:50;4.90;;;4.50;;
2888;SDS011;1453;42.708;23.282;2024-03-25T14:08:15;4.77;;;4.37;;
2888;SDS011;1453;42.708;23.282;2024-03-25T14:10:43;4.60;;;4.20;;
2888;SDS011;1453;42.708;23.282;2024-03-25T14:13:09;4.55;;;4.22;;
2888;SDS011;1453;42.708;23.282;2024-03-25T14:15:35;6.00;;;4.90;;
2888;SDS011;1453;42.708;23.282;2024-03-25T14:18:01;4.70;;;4.30;;
2888;SDS011;1453;42.708;23.282;2024-03-25T14:20:27;4.15;;;3.85;;
2888;SDS011;1453;42.708;23.282;2024-03-25T14:22:53;4.40;;;4.10;;
2888;SDS011;1453;42.708;23.282;2024-03-25T14:25:18;4.63;;;3.90;;
2888;SDS011;1453;42.708;23.282;2024-03-25T14:27:44;4.70;;;4.23;;
2888;SDS011;1453;42.708;23.282;2024-03-25T14:30:10;4.50;;;4.20;;
2888;SDS011;1453;42.708;23.282;2024-03-25T14:32:40;5.27;;;4.87;;
2888;SDS011;1453;42.708;23.282;2024-03-25T14:35:06;4.90;;;4.60;;
2888;SDS011;1453;42.708;23.282;2024-03-25T14:37:32;4.90;;;4.60;;
2888;SDS011;1453;42.708;23.282;2024-03-25T14:39:58;4.90;;;4.50;;
2888;SDS011;1453;42.708;23.282;2024-03-25T14:42:24;5.13;;;4.63;;
2888;SDS011;1453;42.708;23.282;2024-03-25T14:44:50;4.83;;;4.53;;
2888;SDS011;1453;42.708;23.282;2024-03-25T14:47:16;4.90;;;4.47;;
2888;SDS011;1453;42.708;23.282;2024-03-25T14:49:42;4.47;;;4.17;;
2888;SDS011;1453;42.708;23.282;2024-03-25T14:52:08;4.60;;;4.30;;
2888;SDS011;1453;42.708;23.282;2024-03-25T14:54:34;5.33;;;5.00;;
2888;SDS011;1453;42.708;23.282;2024-03-25T14:57:00;4.70;;;4.40;;